Time;durP1;ratioP1;P1;durP2;ratioP2;P2;SDS_P1;SDS_P2;PMS_P1;PMS_P2;Temp;Humidity;BMP_temperature;BMP_pressure;BME280_temperature;BME280_humidity;BME280_pressure;Samples;Min_cycle;Max_cycle;Signal;HPM_P1;HPM_P2
2021/12/17 00:01:15;;;;;;;29.80;17.60;;;9.60;99.90;;;;;;5028167;28;20030;-58
2021/12/17 00:03:50;;;;;;;25.13;16.75;;;9.50;99.90;;;;;;5024859;28;20068;-62
2021/12/17 00:08:55;;;;;;;27.13;17.15;;;9.50;99.90;;;;;;5023285;28;20570;-59
2021/12/17 00:11:22;;;;;;;30.35;17.48;;;9.50;99.90;;;;;;5012821;28;20022;-61
2021/12/17 00:13:49;;;;;;;26.73;17.05;;;9.50;99.90;;;;;;5010377;28;20087;-63
2021/12/17 00:16:22;;;;;;;26.08;16.27;;;9.50;99.90;;;;;;5010528;28;20022;-54
2021/12/17 00:49:19;;;;;;;26.55;17.90;;;9.50;99.90;;;;;;4989564;28;20057;-64
2021/12/17 00:51:59;;;;;;;30.77;18.40;;;9.40;99.90;;;;;;5007463;28;20048;-54
2021/12/17 00:54:34;;;;;;;24.45;16.08;;;9.40;99.90;;;;;;5026333;28;20129;-56
2021/12/17 00:57:10;;;;;;;26.63;15.60;;;9.40;99.90;;;;;;5028094;28;20022;-64
2021/12/17 00:59:36;;;;;;;25.35;14.95;;;9.50;99.90;;;;;;5029141;28;20040;-60
2021/12/17 01:02:07;;;;;;;30.00;16.10;;;9.40;99.90;;;;;;5022757;28;20041;-62
2021/12/17 01:04:35;;;;;;;27.90;16.30;;;9.40;99.90;;;;;;5027154;28;20036;-55
2021/12/17 01:07:01;;;;;;;23.70;15.32;;;9.40;99.90;;;;;;5026587;28;20060;-62
2021/12/17 01:09:27;;;;;;;26.48;16.83;;;9.40;99.90;;;;;;5030185;28;20109;-54
2021/12/17 01:11:56;;;;;;;23.60;15.15;;;9.40;99.90;;;;;;5028950;28;20076;-62
2021/12/17 01:14:22;;;;;;;25.85;14.27;;;9.40;99.90;;;;;;5032106;28;20022;-61
2021/12/17 01:16:50;;;;;;;23.33;14.48;;;9.30;99.90;;;;;;5015888;28;20041;-64
2021/12/17 01:35:28;;;;;;;19.38;11.70;;;9.40;99.90;;;;;;5033361;28;20048;-58
2021/12/17 01:43:16;;;;;;;18.00;12.02;;;9.50;99.90;;;;;;5033388;28;20057;-60
2021/12/17 01:45:43;;;;;;;19.73;13.00;;;9.50;99.90;;;;;;5033851;28;20029;-60
2021/12/17 01:48:14;;;;;;;18.80;12.43;;;9.40;99.90;;;;;;5033418;28;20028;-58
2021/12/17 02:01:37;;;;;;;16.83;11.38;;;9.40;99.90;;;;;;5033688;28;20084;-58
2021/12/17 02:04:06;;;;;;;16.88;11.68;;;9.40;99.90;;;;;;5033038;28;20029;-63
2021/12/17 02:06:35;;;;;;;17.08;11.52;;;9.40;99.90;;;;;;5033619;28;20036;-56
2021/12/17 02:09:11;;;;;;;16.25;11.73;;;9.50;99.90;;;;;;5032997;28;20525;-57
2021/12/17 02:32:55;;;;;;;16.40;10.77;;;9.50;99.90;;;;;;5033095;28;20036;-58
2021/12/17 02:35:30;;;;;;;18.63;10.88;;;9.50;99.90;;;;;;5032797;28;20025;-62
2021/12/17 02:37:56;;;;;;;17.73;9.88;;;9.40;99.90;;;;;;5031653;28;20037;-72
2021/12/17 02:45:32;;;;;;;14.25;9.82;;;9.50;99.90;;;;;;5032971;28;20487;-53
2021/12/17 02:48:10;;;;;;;13.13;9.00;;;9.50;99.90;;;;;;5032305;28;20370;-58
2021/12/17 02:50:40;;;;;;;16.00;10.43;;;9.60;99.90;;;;;;5032554;28;20116;-63
2021/12/17 02:53:07;;;;;;;15.65;10.05;;;9.50;99.90;;;;;;5014573;28;20030;-59
2021/12/17 02:55:35;;;;;;;12.93;9.65;;;9.50;99.90;;;;;;5032948;28;20068;-58
2021/12/17 02:58:03;;;;;;;13.68;9.65;;;9.50;99.90;;;;;;5032159;28;20068;-57
2021/12/17 03:00:29;;;;;;;17.33;10.93;;;9.50;99.90;;;;;;5014677;28;20034;-57
2021/12/17 03:02:55;;;;;;;18.20;9.90;;;9.50;99.90;;;;;;5032521;28;20108;-56
2021/12/17 03:05:23;;;;;;;18.45;11.75;;;9.50;99.90;;;;;;5014210;28;20108;-66
2021/12/17 03:07:50;;;;;;;14.63;10.15;;;9.50;99.90;;;;;;5014627;28;20025;-65
2021/12/17 03:10:16;;;;;;;15.05;10.60;;;9.60;99.90;;;;;;5031628;28;20034;-52
2021/12/17 03:15:34;;;;;;;14.65;9.65;;;9.50;99.90;;;;;;5031537;28;20057;-59
2021/12/17 03:23:32;;;;;;;14.68;9.73;;;9.40;99.90;;;;;;5031469;28;20060;-53
2021/12/17 03:26:01;;;;;;;14.05;8.88;;;9.40;99.90;;;;;;5031841;28;20049;-61
2021/12/17 03:28:27;;;;;;;15.70;10.07;;;9.40;99.90;;;;;;5014150;28;20054;-62
2021/12/17 03:30:53;;;;;;;14.70;9.82;;;9.40;99.90;;;;;;5031387;28;20411;-58
2021/12/17 03:33:20;;;;;;;14.55;9.52;;;9.50;99.90;;;;;;5031442;28;20230;-59
2021/12/17 03:35:47;;;;;;;12.75;9.23;;;9.50;99.90;;;;;;5031800;28;20037;-62
2021/12/17 03:38:12;;;;;;;14.35;9.90;;;9.40;99.90;;;;;;5031415;28;20083;-56
2021/12/17 03:40:40;;;;;;;16.83;9.45;;;9.40;99.90;;;;;;5031696;28;20467;-56
2021/12/17 03:43:12;;;;;;;13.93;9.73;;;9.40;99.90;;;;;;5013292;28;20075;-66
2021/12/17 03:45:39;;;;;;;15.23;9.63;;;9.40;99.90;;;;;;5031944;28;20135;-58
2021/12/17 03:48:05;;;;;;;14.88;10.68;;;9.40;99.90;;;;;;5031333;28;20029;-64
2021/12/17 03:50:35;;;;;;;16.92;10.27;;;9.30;99.90;;;;;;5030494;28;20034;-61
2021/12/17 03:53:02;;;;;;;16.00;10.52;;;9.30;99.90;;;;;;5031307;28;20119;-71
2021/12/17 03:55:28;;;;;;;14.70;10.55;;;9.30;99.90;;;;;;5031659;28;20025;-58
2021/12/17 03:57:53;;;;;;;15.65;10.90;;;9.20;99.90;;;;;;5013908;28;20427;-61
2021/12/17 04:00:19;;;;;;;16.25;11.32;;;9.20;99.90;;;;;;5030989;28;20360;-58
2021/12/17 04:02:46;;;;;;;16.77;11.27;;;9.20;99.90;;;;;;5031568;28;20053;-56
2021/12/17 04:05:12;;;;;;;15.23;10.05;;;9.20;99.90;;;;;;5030883;28;20026;-63
2021/12/17 04:07:37;;;;;;;14.40;10.00;;;9.20;99.90;;;;;;5031726;28;20029;-68
2021/12/17 04:10:04;;;;;;;15.30;10.85;;;9.20;99.90;;;;;;5030521;28;20030;-66
2021/12/17 04:15:05;;;;;;;16.02;10.90;;;9.30;99.90;;;;;;5031035;28;20032;-56
2021/12/17 04:17:40;;;;;;;16.45;10.73;;;9.30;99.90;;;;;;5031331;28;20030;-59
2021/12/17 04:20:06;;;;;;;16.92;10.73;;;9.30;99.90;;;;;;5030535;28;20386;-55
2021/12/17 04:22:32;;;;;;;16.48;10.73;;;9.30;99.90;;;;;;5031157;28;20493;-62
2021/12/17 04:24:57;;;;;;;16.20;11.07;;;9.30;99.90;;;;;;5031413;28;20030;-62
2021/12/17 04:27:23;;;;;;;14.82;9.63;;;9.30;99.90;;;;;;5030754;28;20421;-61
2021/12/17 04:29:49;;;;;;;16.90;11.00;;;9.30;99.90;;;;;;5031157;28;20084;-56
2021/12/17 04:32:14;;;;;;;14.55;10.02;;;9.40;99.90;;;;;;5030859;28;20033;-52
2021/12/17 04:34:40;;;;;;;16.27;10.70;;;9.30;99.90;;;;;;5029876;28;20113;-59
2021/12/17 04:37:05;;;;;;;14.57;9.93;;;9.40;99.90;;;;;;5030972;28;20451;-70
2021/12/17 04:39:31;;;;;;;12.02;9.20;;;9.40;99.90;;;;;;5031073;28;20033;-60
2021/12/17 04:44:32;;;;;;;9.82;6.40;;;9.30;99.90;;;;;;5033797;28;20112;-57
2021/12/17 04:57:41;;;;;;;16.52;9.82;;;9.20;99.90;;;;;;5035202;28;20132;-62
2021/12/17 05:00:24;;;;;;;22.05;10.30;;;9.20;99.90;;;;;;5013513;28;20033;-63
2021/12/17 05:02:53;;;;;;;13.70;9.25;;;9.20;99.90;;;;;;5019076;28;20498;-64
2021/12/17 05:05:22;;;;;;;15.52;10.02;;;9.10;99.90;;;;;;5017859;28;20483;-58
2021/12/17 05:08:00;;;;;;;15.25;9.80;;;9.20;99.90;;;;;;5017392;28;20029;-63
2021/12/17 05:11:12;;;;;;;13.55;8.80;;;9.20;99.90;;;;;;5034005;28;20033;-60
2021/12/17 05:21:37;;;;;;;16.17;9.88;;;9.30;99.90;;;;;;5017013;28;20044;-60
2021/12/17 05:24:03;;;;;;;15.50;11.25;;;9.20;99.90;;;;;;5016795;28;20120;-61
2021/12/17 05:26:29;;;;;;;12.43;9.13;;;9.20;99.90;;;;;;5016153;28;20061;-61
2021/12/17 05:28:55;;;;;;;14.02;8.18;;;9.30;99.90;;;;;;5033905;28;20049;-61
2021/12/17 05:31:21;;;;;;;12.65;8.40;;;9.20;99.90;;;;;;5033509;28;20079;-61
2021/12/17 05:33:48;;;;;;;12.57;7.32;;;9.30;99.90;;;;;;5033770;28;20025;-60
2021/12/17 05:36:14;;;;;;;13.40;7.85;;;9.30;99.90;;;;;;5015710;28;20021;-61
2021/12/17 05:38:40;;;;;;;12.82;6.63;;;9.30;99.90;;;;;;5016353;28;20038;-60
2021/12/17 05:41:06;;;;;;;9.85;6.97;;;9.30;99.90;;;;;;5033764;28;20103;-61
2021/12/17 05:43:36;;;;;;;12.40;7.03;;;9.30;99.90;;;;;;5015238;28;20033;-59
2021/12/17 05:46:10;;;;;;;16.60;8.88;;;9.30;99.90;;;;;;5033664;28;20033;-60
2021/12/17 05:48:37;;;;;;;13.95;7.25;;;9.40;99.90;;;;;;5016209;28;20095;-61
2021/12/17 05:51:05;;;;;;;13.75;7.75;;;9.30;99.90;;;;;;5015813;28;20021;-61
2021/12/17 05:53:31;;;;;;;10.80;7.78;;;9.20;99.90;;;;;;5014455;28;20021;-58
2021/12/17 05:55:56;;;;;;;9.43;6.95;;;9.30;99.90;;;;;;5015825;28;20120;-60
2021/12/17 05:58:23;;;;;;;14.40;6.85;;;9.30;99.90;;;;;;5033102;28;20045;-61
2021/12/17 06:00:49;;;;;;;8.63;6.05;;;9.30;99.90;;;;;;5033634;28;20363;-61
2021/12/17 06:03:17;;;;;;;17.33;7.53;;;9.20;99.90;;;;;;5015067;28;20029;-61
2021/12/17 06:05:44;;;;;;;11.63;7.32;;;9.20;99.90;;;;;;5033376;28;20021;-59
2021/12/17 06:08:10;;;;;;;13.20;7.07;;;9.30;99.90;;;;;;5032727;28;20044;-63
2021/12/17 06:10:36;;;;;;;12.50;8.07;;;9.30;99.90;;;;;;5033314;28;20467;-61
2021/12/17 06:13:01;;;;;;;10.38;8.10;;;9.30;99.90;;;;;;5032838;28;20036;-61
2021/12/17 06:15:27;;;;;;;12.85;8.68;;;9.30;99.90;;;;;;5032614;28;20101;-61
2021/12/17 06:17:54;;;;;;;15.48;8.32;;;9.40;99.90;;;;;;5033128;28;20079;-61
2021/12/17 06:20:22;;;;;;;18.92;9.18;;;9.40;99.90;;;;;;5014588;28;20030;-60
2021/12/17 06:22:48;;;;;;;13.63;8.63;;;9.40;99.90;;;;;;5033032;28;20053;-61
2021/12/17 06:25:15;;;;;;;18.02;8.95;;;9.40;99.90;;;;;;5032540;28;20032;-62
2021/12/17 06:27:41;;;;;;;21.00;9.88;;;9.40;99.90;;;;;;5044279;22;20054;-72
2021/12/17 06:30:09;;;;;;;13.15;8.60;;;9.30;99.90;;;;;;5015254;28;20038;-71
2021/12/17 06:32:35;;;;;;;12.43;8.52;;;9.30;99.90;;;;;;5013519;28;20029;-71
2021/12/17 06:35:01;;;;;;;21.45;10.07;;;9.40;99.90;;;;;;5014828;28;20044;-71
2021/12/17 06:37:27;;;;;;;20.10;9.75;;;9.40;99.90;;;;;;5014560;28;20137;-71
2021/12/17 06:39:52;;;;;;;12.98;9.05;;;9.40;99.90;;;;;;5016488;28;20034;-73
2021/12/17 06:42:18;;;;;;;12.43;9.27;;;9.30;99.90;;;;;;5017601;28;20038;-70
2021/12/17 06:44:46;;;;;;;17.77;9.18;;;9.40;99.90;;;;;;5019675;28;20029;-74
2021/12/17 06:47:36;;;;;;;17.88;8.48;;;9.40;99.90;;;;;;5017010;28;20030;-72
2021/12/17 07:00:58;;;;;;;11.82;6.97;;;9.30;99.90;;;;;;5014091;28;20057;-72
2021/12/17 07:06:48;;;;;;;13.75;8.15;;;9.20;99.90;;;;;;5012655;28;20073;-73
2021/12/17 07:23:02;;;;;;;28.98;8.90;;;9.10;99.90;;;;;;4972980;28;20030;-73
2021/12/17 07:33:44;;;;;;;14.55;9.60;;;9.20;99.90;;;;;;5016020;28;20403;-73
2021/12/17 07:36:14;;;;;;;16.08;8.98;;;9.20;99.90;;;;;;5030705;28;20030;-74
2021/12/17 07:38:47;;;;;;;14.35;8.60;;;9.20;99.90;;;;;;5015295;28;20036;-71
2021/12/17 07:41:14;;;;;;;16.88;9.05;;;9.30;99.90;;;;;;5013139;28;20061;-70
2021/12/17 07:43:51;;;;;;;10.80;7.70;;;9.30;99.90;;;;;;4997579;28;20096;-71
2021/12/17 07:46:17;;;;;;;11.40;8.52;;;9.30;99.90;;;;;;5012526;28;20064;-73
2021/12/17 07:48:43;;;;;;;11.82;7.63;;;9.30;99.90;;;;;;5013955;28;20038;-72
2021/12/17 07:51:12;;;;;;;13.27;8.30;;;9.30;99.90;;;;;;5013098;28;20029;-72
2021/12/17 07:53:39;;;;;;;9.98;7.40;;;9.20;99.90;;;;;;5012358;28;20030;-73
2021/12/17 07:56:06;;;;;;;11.23;7.60;;;9.20;99.90;;;;;;5013969;28;20057;-73
2021/12/17 07:58:32;;;;;;;11.70;7.10;;;9.20;99.90;;;;;;5012081;28;20483;-73
2021/12/17 08:00:58;;;;;;;12.07;8.20;;;9.20;99.90;;;;;;5015066;28;20048;-73
2021/12/17 08:03:24;;;;;;;12.95;8.27;;;9.20;99.90;;;;;;5015026;28;20420;-73
2021/12/17 08:05:51;;;;;;;11.18;7.60;;;9.20;99.90;;;;;;5015373;28;20030;-71
2021/12/17 08:08:17;;;;;;;21.98;8.88;;;9.20;99.90;;;;;;5012648;28;20061;-73
2021/12/17 08:10:44;;;;;;;16.90;10.15;;;9.30;99.90;;;;;;5012824;28;20038;-72
2021/12/17 08:13:16;;;;;;;24.48;8.90;;;9.30;99.90;;;;;;5012610;28;20029;-73
2021/12/17 08:15:50;;;;;;;10.68;8.00;;;9.40;99.90;;;;;;5013703;28;20037;-72
2021/12/17 08:24:10;;;;;;;9.20;7.70;;;9.40;99.90;;;;;;5015775;28;20533;-72
2021/12/17 08:31:33;;;;;;;15.80;8.13;;;9.50;99.90;;;;;;5015193;28;20056;-73
2021/12/17 08:33:59;;;;;;;15.82;9.40;;;9.50;99.90;;;;;;5013801;28;20030;-71
2021/12/17 08:36:25;;;;;;;11.48;8.15;;;9.40;99.90;;;;;;5014016;28;20022;-72
2021/12/17 08:38:51;;;;;;;11.52;8.07;;;9.40;99.90;;;;;;5014514;28;20045;-72
2021/12/17 08:41:20;;;;;;;8.23;6.55;;;9.40;99.90;;;;;;5014013;28;20032;-73
2021/12/17 08:43:45;;;;;;;15.65;8.57;;;9.50;99.90;;;;;;5013477;28;20041;-71
2021/12/17 08:46:11;;;;;;;10.98;7.88;;;9.50;99.90;;;;;;5015237;28;20034;-72
2021/12/17 08:48:37;;;;;;;10.48;8.02;;;9.60;99.90;;;;;;4996219;28;20029;-72
2021/12/17 08:51:06;;;;;;;9.75;8.27;;;9.60;99.90;;;;;;5015019;28;20021;-72
2021/12/17 08:53:32;;;;;;;12.90;8.85;;;9.60;99.90;;;;;;5014812;28;20026;-72
2021/12/17 08:55:58;;;;;;;10.25;7.28;;;9.50;99.90;;;;;;5016136;28;20125;-75
2021/12/17 08:58:24;;;;;;;10.95;8.15;;;9.40;99.90;;;;;;5013331;28;20030;-71
2021/12/17 09:00:49;;;;;;;10.90;7.65;;;9.40;99.90;;;;;;5013598;28;20079;-72
2021/12/17 09:03:15;;;;;;;12.70;8.32;;;9.50;99.90;;;;;;5013190;28;20076;-73
2021/12/17 09:05:43;;;;;;;12.07;8.13;;;9.60;99.90;;;;;;5014713;28;20080;-73
2021/12/17 09:08:10;;;;;;;9.35;7.22;;;9.60;99.90;;;;;;5013028;28;20064;-73
2021/12/17 09:10:36;;;;;;;11.15;7.70;;;9.60;99.90;;;;;;5012697;28;20030;-71
2021/12/17 09:13:03;;;;;;;11.40;8.68;;;9.70;99.90;;;;;;5013270;28;20026;-74
2021/12/17 09:15:29;;;;;;;12.18;8.80;;;9.70;99.90;;;;;;5012460;28;20355;-71
2021/12/17 09:17:55;;;;;;;10.20;8.55;;;9.70;99.90;;;;;;5013308;28;20034;-73
2021/12/17 09:20:21;;;;;;;11.25;7.43;;;9.70;99.90;;;;;;5014340;28;20121;-73
2021/12/17 09:22:47;;;;;;;13.90;8.25;;;9.80;99.90;;;;;;5014175;28;20026;-74
2021/12/17 09:25:14;;;;;;;14.10;9.27;;;9.80;99.90;;;;;;5012977;28;20025;-73
2021/12/17 09:27:41;;;;;;;13.88;9.02;;;9.80;99.90;;;;;;5013112;28;20049;-73
2021/12/17 09:30:10;;;;;;;13.25;9.05;;;9.80;99.90;;;;;;5016267;28;20030;-72
2021/12/17 09:32:38;;;;;;;11.05;8.60;;;9.80;99.90;;;;;;5014991;28;20029;-71
2021/12/17 09:35:05;;;;;;;10.98;7.70;;;9.90;99.90;;;;;;5016945;28;20459;-71
2021/12/17 09:37:30;;;;;;;11.70;8.45;;;9.90;99.90;;;;;;5016674;28;20053;-72
2021/12/17 09:39:56;;;;;;;12.57;8.95;;;9.80;99.90;;;;;;5016547;28;20029;-73
2021/12/17 09:42:22;;;;;;;11.05;8.13;;;9.90;99.90;;;;;;5016584;28;20475;-70
2021/12/17 09:44:48;;;;;;;18.98;9.13;;;9.90;99.90;;;;;;5016380;28;20121;-73
2021/12/17 09:47:13;;;;;;;12.30;8.25;;;9.90;99.90;;;;;;5015988;28;20030;-74
2021/12/17 09:49:39;;;;;;;14.73;9.02;;;10.00;99.90;;;;;;5015317;28;20121;-72
2021/12/17 09:52:05;;;;;;;12.68;9.75;;;10.00;99.90;;;;;;5016409;28;20366;-71
2021/12/17 09:54:31;;;;;;;16.00;9.75;;;10.10;99.90;;;;;;5015942;28;20037;-75
2021/12/17 09:56:56;;;;;;;16.08;9.30;;;10.00;99.90;;;;;;5015857;28;20034;-72
2021/12/17 09:59:25;;;;;;;16.48;10.40;;;10.00;99.90;;;;;;5015943;28;20116;-72
2021/12/17 10:01:51;;;;;;;16.25;10.10;;;10.10;99.90;;;;;;5015202;28;20479;-72
2021/12/17 10:04:28;;;;;;;13.30;9.80;;;10.10;99.90;;;;;;5015456;28;20033;-71
2021/12/17 10:07:16;;;;;;;13.55;9.38;;;10.00;99.90;;;;;;5015181;28;20460;-75
2021/12/17 10:09:54;;;;;;;14.73;9.57;;;10.00;99.90;;;;;;5013892;28;20033;-71
2021/12/17 10:12:32;;;;;;;13.93;8.63;;;10.10;99.90;;;;;;5014214;28;20026;-72
2021/12/17 10:15:09;;;;;;;13.38;9.25;;;10.10;99.90;;;;;;5014200;28;20506;-72
2021/12/17 10:17:37;;;;;;;15.57;8.50;;;10.10;99.90;;;;;;5013931;28;20116;-72
2021/12/17 10:20:06;;;;;;;13.73;8.27;;;10.10;99.90;;;;;;5015366;28;20087;-71
2021/12/17 10:22:34;;;;;;;10.93;7.65;;;10.10;99.90;;;;;;5013786;28;20049;-72
2021/12/17 10:24:59;;;;;;;13.02;9.05;;;10.20;99.90;;;;;;5015534;28;20079;-73
2021/12/17 10:27:41;;;;;;;16.13;9.77;;;10.20;99.90;;;;;;5014916;28;20387;-73
2021/12/17 10:30:16;;;;;;;12.35;8.98;;;10.10;99.90;;;;;;5014233;28;20038;-73
2021/12/17 10:32:44;;;;;;;13.55;8.82;;;10.10;99.90;;;;;;5015852;28;20064;-74
2021/12/17 10:35:15;;;;;;;15.57;9.15;;;10.00;99.90;;;;;;5014795;28;20026;-72
2021/12/17 10:37:50;;;;;;;14.53;9.30;;;10.00;99.90;;;;;;5017397;28;20030;-75
2021/12/17 10:40:26;;;;;;;14.65;8.23;;;10.10;99.90;;;;;;5014231;28;20269;-75
2021/12/17 10:43:06;;;;;;;16.65;8.52;;;10.10;99.90;;;;;;5014331;28;20029;-72
2021/12/17 10:45:43;;;;;;;11.38;7.43;;;10.10;99.90;;;;;;5013528;28;20022;-72
2021/12/17 10:50:53;;;;;;;11.90;8.07;;;10.00;99.90;;;;;;5015702;28;20050;-73
2021/12/17 10:53:24;;;;;;;12.98;7.78;;;10.00;99.90;;;;;;5014905;28;20026;-72
2021/12/17 10:55:49;;;;;;;11.70;7.63;;;10.10;99.90;;;;;;5032445;28;20046;-72
2021/12/17 10:58:15;;;;;;;10.20;6.35;;;10.10;99.90;;;;;;5032739;28;20399;-70
2021/12/17 11:01:02;;;;;;;10.15;6.32;;;10.10;99.90;;;;;;5033162;28;20139;-72
2021/12/17 11:03:29;;;;;;;11.85;6.78;;;10.20;99.90;;;;;;5015505;28;20025;-72
2021/12/17 11:05:55;;;;;;;11.85;5.97;;;10.20;99.90;;;;;;5032272;28;20037;-72
2021/12/17 11:08:33;;;;;;;10.57;5.68;;;10.30;99.90;;;;;;5031805;28;20041;-72
2021/12/17 11:11:09;;;;;;;9.43;5.55;;;10.20;99.90;;;;;;5032496;28;20049;-69
2021/12/17 11:13:58;;;;;;;9.10;5.97;;;10.40;99.90;;;;;;5030948;28;20136;-73
2021/12/17 11:16:27;;;;;;;14.02;5.70;;;10.60;99.90;;;;;;5017767;28;20041;-71
2021/12/17 11:18:54;;;;;;;9.65;4.90;;;10.60;99.90;;;;;;5019245;28;20044;-72
2021/12/17 11:21:21;;;;;;;11.15;5.72;;;10.60;99.90;;;;;;5035181;28;20123;-75
2021/12/17 11:23:47;;;;;;;9.20;5.55;;;10.50;99.90;;;;;;5031829;28;20040;-70
2021/12/17 11:26:14;;;;;;;27.42;6.20;;;10.60;99.90;;;;;;5013853;28;20169;-74
2021/12/17 11:28:40;;;;;;;9.80;5.10;;;10.70;99.90;;;;;;5012122;28;20112;-71
2021/12/17 11:31:06;;;;;;;7.35;5.25;;;10.70;99.90;;;;;;5014613;28;20092;-68
2021/12/17 11:33:32;;;;;;;10.60;6.82;;;10.80;99.90;;;;;;4998650;28;20399;-65
2021/12/17 11:35:58;;;;;;;8.27;5.43;;;11.20;99.90;;;;;;5011993;28;20037;-71
2021/12/17 11:38:44;;;;;;;9.60;5.30;;;11.20;99.90;;;;;;5012925;28;20084;-80
2021/12/17 11:41:19;;;;;;;9.90;6.50;;;11.00;99.90;;;;;;5012731;28;20099;-74
2021/12/17 11:43:59;;;;;;;16.27;6.28;;;11.00;99.90;;;;;;5011136;28;20037;-73
2021/12/17 11:46:33;;;;;;;11.32;6.55;;;10.90;99.90;;;;;;5013344;28;20053;-74
2021/12/17 11:49:07;;;;;;;6.90;4.97;;;11.00;99.90;;;;;;5012592;28;20079;-70
2021/12/17 11:51:34;;;;;;;15.80;6.40;;;10.90;99.90;;;;;;5010878;28;20038;-69
2021/12/17 11:54:10;;;;;;;10.77;6.22;;;11.30;99.90;;;;;;5012400;28;20025;-75
2021/12/17 11:56:54;;;;;;;9.88;6.28;;;11.70;99.90;;;;;;5012988;28;20029;-73
2021/12/17 11:59:29;;;;;;;12.82;6.60;;;11.50;99.90;;;;;;5003204;28;20100;-74
2021/12/17 12:02:11;;;;;;;12.23;5.70;;;11.10;99.90;;;;;;5013980;28;20029;-72
2021/12/17 12:04:57;;;;;;;12.95;5.63;;;11.00;99.90;;;;;;5012801;28;20057;-71
2021/12/17 12:07:25;;;;;;;10.32;6.65;;;10.90;99.90;;;;;;5005253;28;20029;-70
2021/12/17 12:10:21;;;;;;;10.05;5.60;;;10.80;99.90;;;;;;5006472;28;20046;-71
2021/12/17 12:12:48;;;;;;;8.45;5.35;;;10.70;99.90;;;;;;5024918;28;20034;-69
2021/12/17 12:15:17;;;;;;;6.68;4.80;;;10.50;99.90;;;;;;5013298;28;20026;-71
2021/12/17 12:17:58;;;;;;;9.52;5.93;;;10.50;99.90;;;;;;5025510;28;20029;-71
2021/12/17 12:20:48;;;;;;;11.40;5.97;;;10.50;99.90;;;;;;5008044;28;20033;-73
2021/12/17 12:23:32;;;;;;;9.25;6.32;;;10.40;99.90;;;;;;5008181;28;20332;-72
2021/12/17 12:26:08;;;;;;;11.32;5.57;;;10.40;99.90;;;;;;5008953;28;20028;-71
2021/12/17 12:28:52;;;;;;;11.65;5.40;;;10.40;99.90;;;;;;5011200;28;20053;-71
2021/12/17 12:31:24;;;;;;;6.78;5.13;;;10.50;99.90;;;;;;5011143;28;20044;-70
2021/12/17 12:34:02;;;;;;;10.70;6.40;;;10.40;99.90;;;;;;5011784;28;20149;-67
2021/12/17 12:36:53;;;;;;;9.82;5.72;;;10.30;99.90;;;;;;5012138;28;20410;-68
2021/12/17 12:39:28;;;;;;;8.27;5.97;;;10.20;99.90;;;;;;5010518;28;20030;-67
2021/12/17 12:42:06;;;;;;;11.23;6.25;;;10.20;99.90;;;;;;5010161;28;20379;-67
2021/12/17 12:44:47;;;;;;;12.25;7.65;;;10.00;99.90;;;;;;5012338;28;20026;-66
2021/12/17 12:47:14;;;;;;;18.45;9.68;;;9.70;99.90;;;;;;5010469;28;20029;-71
2021/12/17 12:49:54;;;;;;;23.48;8.20;;;9.80;99.90;;;;;;5007544;28;20034;-69
2021/12/17 12:52:32;;;;;;;12.65;8.73;;;10.00;99.90;;;;;;5006109;28;20069;-72
2021/12/17 12:55:34;;;;;;;20.17;9.45;;;9.90;99.90;;;;;;4992040;28;20033;-72
2021/12/17 12:58:29;;;;;;;13.65;7.38;;;10.00;99.90;;;;;;4992507;28;20027;-69
2021/12/17 13:01:00;;;;;;;13.07;7.18;;;10.00;99.90;;;;;;4989490;28;20485;-71
2021/12/17 13:03:32;;;;;;;11.60;7.22;;;9.90;99.90;;;;;;4990317;28;20065;-71
2021/12/17 13:05:59;;;;;;;18.48;8.30;;;10.00;99.90;;;;;;4993176;28;20125;-70
2021/12/17 13:08:30;;;;;;;16.65;8.52;;;10.10;99.90;;;;;;4994116;28;20037;-70
2021/12/17 13:10:59;;;;;;;11.47;7.40;;;10.10;99.90;;;;;;5002112;28;20045;-72
2021/12/17 13:24:13;;;;;;;12.05;7.07;;;10.10;99.90;;;;;;5013340;28;20051;-70
2021/12/17 13:26:51;;;;;;;15.50;7.75;;;10.10;99.90;;;;;;5012978;28;20049;-72
2021/12/17 13:29:21;;;;;;;16.35;8.43;;;10.00;99.90;;;;;;4997165;28;20073;-71
2021/12/17 13:32:02;;;;;;;12.57;8.68;;;9.90;99.90;;;;;;4996835;28;20077;-72
2021/12/17 13:34:41;;;;;;;14.57;9.07;;;9.80;99.90;;;;;;5014025;28;20061;-71
2021/12/17 13:37:11;;;;;;;13.30;8.73;;;9.70;99.90;;;;;;5013510;28;20440;-70
2021/12/17 13:39:48;;;;;;;12.18;7.32;;;9.60;99.90;;;;;;5014202;28;20030;-72
2021/12/17 13:42:20;;;;;;;10.25;7.38;;;9.70;99.90;;;;;;5014752;28;20033;-71
2021/12/17 13:44:53;;;;;;;13.10;7.95;;;9.60;99.90;;;;;;5015720;28;20110;-71
2021/12/17 13:47:32;;;;;;;12.68;8.02;;;9.70;99.90;;;;;;5015802;28;20026;-72
2021/12/17 13:50:03;;;;;;;13.38;8.48;;;9.70;99.90;;;;;;5014162;28;20101;-71
2021/12/17 13:52:31;;;;;;;11.50;6.80;;;9.80;99.90;;;;;;5014286;28;20474;-71
2021/12/17 13:54:58;;;;;;;12.43;6.80;;;9.60;99.90;;;;;;5013714;28;20092;-70
2021/12/17 13:57:27;;;;;;;9.80;6.68;;;9.60;99.90;;;;;;5014483;28;20113;-72
2021/12/17 14:00:04;;;;;;;15.23;7.70;;;9.60;99.90;;;;;;5015500;28;20447;-71
2021/12/17 14:02:34;;;;;;;12.73;8.02;;;9.80;99.90;;;;;;5014395;28;20026;-71
2021/12/17 14:05:10;;;;;;;14.00;7.55;;;9.80;99.90;;;;;;5015184;28;20030;-71
2021/12/17 14:07:38;;;;;;;13.60;8.93;;;9.80;99.90;;;;;;5015553;28;20029;-72
2021/12/17 14:10:24;;;;;;;17.52;8.75;;;9.70;99.90;;;;;;5014326;28;20479;-72
2021/12/17 14:12:50;;;;;;;11.63;8.40;;;9.60;99.90;;;;;;5013417;28;20032;-72
2021/12/17 14:15:20;;;;;;;12.75;7.78;;;9.60;99.90;;;;;;5014854;28;20026;-72
2021/12/17 14:17:57;;;;;;;19.90;8.55;;;9.60;99.90;;;;;;5012971;28;20029;-72
2021/12/17 14:20:26;;;;;;;13.98;7.95;;;9.60;99.90;;;;;;5015009;28;20061;-72
2021/12/17 14:23:03;;;;;;;15.45;8.02;;;9.60;99.90;;;;;;5012890;28;20472;-71
2021/12/17 14:25:33;;;;;;;21.20;9.63;;;9.50;99.90;;;;;;5012795;28;20034;-72
2021/12/17 14:28:21;;;;;;;14.23;8.45;;;9.60;99.90;;;;;;5014000;28;20054;-72
2021/12/17 14:31:09;;;;;;;18.55;9.52;;;9.50;99.90;;;;;;5014809;28;20038;-73
2021/12/17 14:33:42;;;;;;;22.60;8.60;;;9.40;99.90;;;;;;5013434;28;20097;-73
2021/12/17 14:36:10;;;;;;;16.17;7.47;;;9.50;99.90;;;;;;5016577;28;20026;-72
2021/12/17 14:38:56;;;;;;;18.30;8.52;;;9.60;99.90;;;;;;5014168;28;20032;-74
2021/12/17 14:41:33;;;;;;;10.73;6.78;;;9.60;99.90;;;;;;5015256;28;20018;-72
2021/12/17 14:44:17;;;;;;;14.90;8.30;;;9.70;99.90;;;;;;5014658;28;20053;-71
2021/12/17 14:59:42;;;;;;;15.43;7.75;;;9.70;99.90;;;;;;5013921;28;20029;-72
2021/12/17 15:01:09;;;;;;;13.23;8.45;;;9.70;99.90;;;;;;5012845;28;20053;-72
2021/12/17 15:06:01;;;;;;;12.25;7.30;;;9.80;99.90;;;;;;5014097;28;20034;-69
2021/12/17 15:08:28;;;;;;;17.55;7.28;;;9.80;99.90;;;;;;5012938;28;20058;-71
2021/12/17 15:10:55;;;;;;;18.65;8.52;;;9.80;99.90;;;;;;5012206;28;20041;-69
2021/12/17 15:13:20;;;;;;;11.40;6.75;;;9.80;99.90;;;;;;5013932;28;20104;-71
2021/12/17 15:15:46;;;;;;;13.75;6.68;;;9.80;99.90;;;;;;5011500;28;20058;-70
2021/12/17 15:18:16;;;;;;;13.80;8.18;;;9.80;99.90;;;;;;5008806;28;20037;-72
2021/12/17 15:20:53;;;;;;;14.02;8.52;;;9.80;99.90;;;;;;5011948;28;20057;-73
2021/12/17 15:23:20;;;;;;;14.55;7.63;;;9.70;99.90;;;;;;5013015;28;20036;-71
2021/12/17 15:25:47;;;;;;;17.30;8.80;;;9.80;99.90;;;;;;5005707;28;20117;-71
2021/12/17 15:28:15;;;;;;;17.40;10.13;;;9.80;99.90;;;;;;5003678;28;20054;-71
2021/12/17 15:30:50;;;;;;;15.23;9.50;;;9.80;99.90;;;;;;5013667;28;20204;-71
2021/12/17 15:33:16;;;;;;;14.40;8.50;;;9.80;99.90;;;;;;5012713;28;20033;-71
2021/12/17 15:35:43;;;;;;;13.68;8.05;;;9.70;99.90;;;;;;5014370;28;20026;-72
2021/12/17 15:38:10;;;;;;;15.25;7.28;;;9.70;99.90;;;;;;5013540;28;20056;-70
2021/12/17 15:40:42;;;;;;;18.63;8.35;;;9.60;99.90;;;;;;5010313;28;20093;-71
2021/12/17 15:43:08;;;;;;;14.15;7.35;;;9.60;99.90;;;;;;5011604;28;20036;-75
2021/12/17 15:45:37;;;;;;;15.40;7.55;;;9.50;99.90;;;;;;5002282;28;20026;-71
2021/12/17 15:48:05;;;;;;;15.15;9.68;;;9.60;99.90;;;;;;5013721;28;20244;-70
2021/12/17 15:50:30;;;;;;;14.98;8.27;;;9.70;99.90;;;;;;5014039;28;20034;-71
2021/12/17 15:52:56;;;;;;;11.75;7.85;;;9.70;99.90;;;;;;5012516;28;20084;-71
2021/12/17 15:55:27;;;;;;;13.23;7.72;;;9.60;99.90;;;;;;5012557;28;20025;-74
2021/12/17 15:57:54;;;;;;;12.13;6.90;;;9.60;99.90;;;;;;5014307;28;20030;-75
2021/12/17 16:00:21;;;;;;;16.20;8.05;;;9.70;99.90;;;;;;5014970;28;20618;-71
2021/12/17 16:02:47;;;;;;;18.50;7.60;;;9.70;99.90;;;;;;5013191;28;20485;-71
2021/12/17 16:05:16;;;;;;;14.75;7.63;;;9.70;99.90;;;;;;5013382;28;20069;-71
2021/12/17 16:07:43;;;;;;;13.65;7.20;;;9.70;99.90;;;;;;5011814;28;20033;-71
2021/12/17 16:23:09;;;;;;;19.55;8.20;;;9.60;99.90;;;;;;5013063;28;20041;-74
2021/12/17 16:25:35;;;;;;;17.25;7.95;;;9.50;99.90;;;;;;5012921;28;20026;-71
2021/12/17 16:28:02;;;;;;;19.48;10.20;;;9.50;99.90;;;;;;5011005;28;20609;-70
2021/12/17 16:30:27;;;;;;;16.95;10.75;;;9.60;99.90;;;;;;5011843;28;20042;-71